Terminal Aerodrome Forecast
Issued by NWS Sioux Falls, SD

Home | Current Version | Previous Version | Text Only | Print | Product List | Glossary On
Versions: 1 2 3 4 5 6 7 8 9 10 11 12 13 14
000
FTUS43 KFSD 272300
TAFFSD
TAF
KFSD 272320Z 2800/2824 35014G21KT P6SM BKN035
     FM280200 35005KT P6SM SCT035
     FM281500 35008KT P6SM BKN035=

USA.gov is the U.S. government's official web portal to all federal, state and local government web resources and services.